Time;durP1;ratioP1;P1;durP2;ratioP2;P2;SDS_P1;SDS_P2;PMS_P1;PMS_P2;Temp;Humidity;BMP_temperature;BMP_pressure;BME280_temperature;BME280_humidity;BME280_pressure;Samples;Min_cycle;Max_cycle;Signal;HPM_P1;HPM_P2
2022/01/28 00:04:49;;;;;;;12.23;4.38;;;;;;;-9.35;87.94;98842.75;5012669;28;20049;-64
2022/01/28 00:07:16;;;;;;;10.27;3.28;;;;;;;-9.27;86.56;98847.72;4996720;28;20053;-62
2022/01/28 00:09:41;;;;;;;13.68;5.00;;;;;;;-9.35;87.42;98828.81;4996099;28;20162;-63
2022/01/28 00:12:08;;;;;;;15.32;5.28;;;;;;;-9.32;86.94;98844.41;5012789;28;20053;-63
2022/01/28 00:14:44;;;;;;;14.85;4.55;;;;;;;-9.28;87.40;98846.03;5029143;28;20056;-63
2022/01/28 00:38:50;;;;;;;14.70;4.57;;;;;;;-9.35;88.35;98805.25;5017703;28;20136;-64
2022/01/28 00:41:16;;;;;;;12.15;4.75;;;;;;;-9.37;88.70;98809.66;5012806;28;20081;-64
2022/01/28 00:43:42;;;;;;;14.88;4.95;;;;;;;-9.51;89.08;98797.03;5012543;28;20115;-63
2022/01/28 00:46:08;;;;;;;13.95;4.10;;;;;;;-9.36;89.48;98806.13;4979997;28;20053;-64
2022/01/28 00:48:34;;;;;;;14.15;4.25;;;;;;;-9.41;90.22;98797.59;4995995;28;20051;-64
2022/01/28 00:51:00;;;;;;;13.93;4.25;;;;;;;-9.37;90.57;98807.06;5013635;28;20049;-62
2022/01/28 00:53:26;;;;;;;14.30;4.95;;;;;;;-9.39;90.63;98806.25;5031987;28;20051;-64
2022/01/28 00:55:54;;;;;;;12.18;5.15;;;;;;;-9.40;91.06;98804.53;5017021;28;20132;-62
2022/01/28 00:58:23;;;;;;;13.88;5.47;;;;;;;-9.43;91.31;98788.91;5016685;28;20382;-64
2022/01/28 01:00:50;;;;;;;13.77;5.38;;;;;;;-9.47;91.26;98794.28;5016101;28;20037;-62
2022/01/28 01:03:16;;;;;;;10.98;4.22;;;;;;;-9.48;92.08;98776.84;4999401;28;20485;-62
2022/01/28 01:05:42;;;;;;;13.52;5.15;;;;;;;-9.49;91.67;98780.38;4983363;28;20413;-65
2022/01/28 01:08:08;;;;;;;15.32;5.43;;;;;;;-9.61;91.87;98749.41;4999473;28;20512;-63
2022/01/28 01:10:34;;;;;;;15.18;5.03;;;;;;;-9.45;91.75;98775.06;5015584;28;20053;-63
2022/01/28 01:13:01;;;;;;;14.32;5.70;;;;;;;-9.77;92.03;98716.78;4998960;28;20049;-64
2022/01/28 01:15:32;;;;;;;15.73;6.55;;;;;;;-9.48;91.78;98771.63;5015080;28;20045;-62
2022/01/28 01:23:15;;;;;;;13.18;4.15;;;;;;;-9.42;92.32;98769.72;5031256;28;20045;-63
2022/01/28 01:25:46;;;;;;;15.68;6.15;;;;;;;-9.41;92.38;98768.81;4999414;28;20108;-61
2022/01/28 01:28:13;;;;;;;14.02;5.50;;;;;;;-9.39;92.10;98761.78;4999717;28;20113;-66
2022/01/28 01:30:42;;;;;;;15.02;4.38;;;;;;;-9.37;92.26;98767.81;5015248;28;20210;-65
2022/01/28 01:33:09;;;;;;;12.98;4.88;;;;;;;-9.45;91.95;98728.81;5015566;28;20044;-63
2022/01/28 01:35:35;;;;;;;11.50;3.83;;;;;;;-9.42;92.00;98748.81;5032756;28;20049;-62
2022/01/28 01:38:01;;;;;;;16.75;6.47;;;;;;;-9.37;92.03;98747.72;5015178;28;20045;-62
2022/01/28 01:40:33;;;;;;;16.33;6.45;;;;;;;-9.35;91.94;98745.06;5031537;28;20139;-63
2022/01/28 01:43:18;;;;;;;12.90;4.72;;;;;;;-9.31;91.81;98746.69;5031546;28;20101;-64
2022/01/28 01:46:14;;;;;;;12.88;4.00;;;;;;;-9.30;91.97;98743.16;5031659;28;20060;-63
2022/01/28 01:54:01;;;;;;;18.23;4.80;;;;;;;-9.32;91.95;98744.97;5001197;28;19975;-64
2022/01/28 01:56:28;;;;;;;15.38;5.18;;;;;;;-9.45;91.82;98725.34;5031514;28;20084;-62
2022/01/28 01:58:54;;;;;;;16.17;6.28;;;;;;;-9.37;91.56;98734.66;5031319;28;20397;-64
2022/01/28 02:01:20;;;;;;;12.65;4.78;;;;;;;-9.29;91.67;98739.63;5014766;28;20103;-63
2022/01/28 02:03:45;;;;;;;14.60;5.50;;;;;;;-9.32;91.68;98740.59;5030049;28;20053;-64
2022/01/28 02:06:11;;;;;;;13.05;4.68;;;;;;;-9.36;91.57;98732.88;4981478;28;20056;-63
2022/01/28 02:08:38;;;;;;;14.70;6.38;;;;;;;-9.32;91.50;98729.28;4982049;28;20131;-63
2022/01/28 02:11:03;;;;;;;12.50;5.20;;;;;;;-9.31;91.96;98725.75;4998178;28;20533;-62
2022/01/28 02:13:31;;;;;;;13.30;4.97;;;;;;;-9.30;91.42;98722.22;5014542;28;20053;-64
2022/01/28 02:15:58;;;;;;;9.60;3.55;;;;;;;-9.29;91.67;98729.16;5014559;28;20080;-65
2022/01/28 02:18:25;;;;;;;17.10;6.03;;;;;;;-9.33;91.34;98717.09;5030956;28;20090;-64
2022/01/28 02:20:54;;;;;;;17.23;6.18;;;;;;;-9.30;91.58;98727.44;5030809;28;20056;-63
2022/01/28 02:23:21;;;;;;;15.65;5.40;;;;;;;-9.29;91.47;98727.38;4998414;28;20080;-64
2022/01/28 02:25:48;;;;;;;15.48;6.65;;;;;;;-9.44;91.07;98698.28;5014495;28;20049;-65
2022/01/28 02:28:18;;;;;;;11.02;3.47;;;;;;;-9.29;91.25;98729.16;5031895;28;20529;-63
2022/01/28 02:30:44;;;;;;;17.67;7.30;;;;;;;-9.41;91.37;98700.78;5030921;28;20080;-62
2022/01/28 02:33:12;;;;;;;16.83;6.05;;;;;;;-9.29;91.51;98724.78;4997780;28;20045;-63
2022/01/28 02:35:38;;;;;;;14.98;5.65;;;;;;;-9.33;91.60;98723.16;5014212;28;20422;-63
2022/01/28 02:38:06;;;;;;;15.10;6.53;;;;;;;-9.29;91.13;98718.69;5030785;28;20057;-63
2022/01/28 02:40:32;;;;;;;15.55;5.15;;;;;;;-9.28;91.66;98721.28;4998356;28;20136;-64
2022/01/28 02:43:04;;;;;;;14.05;4.72;;;;;;;-9.24;91.39;98732.50;4997528;28;20042;-63
2022/01/28 02:45:36;;;;;;;16.83;5.32;;;;;;;-9.52;91.36;98673.22;4998500;28;20119;-64
2022/01/28 02:48:06;;;;;;;15.52;7.07;;;;;;;-9.21;91.67;98714.06;5030446;28;20116;-62
2022/01/28 02:50:41;;;;;;;15.88;5.57;;;;;;;-9.16;91.55;98709.53;5015065;28;20056;-64
2022/01/28 02:53:09;;;;;;;12.90;4.78;;;;;;;-9.49;91.74;98646.97;5014220;28;20053;-62
2022/01/28 02:55:41;;;;;;;15.60;6.18;;;;;;;-9.18;91.80;98685.16;5031413;28;20045;-63
2022/01/28 02:58:21;;;;;;;16.15;5.43;;;;;;;-9.30;91.70;98669.88;5016493;28;20120;-67
2022/01/28 03:00:47;;;;;;;14.70;5.45;;;;;;;-9.08;91.73;98680.47;5032639;28;20052;-62
2022/01/28 03:03:18;;;;;;;9.10;2.80;;;;;;;-9.08;92.02;98680.47;5013863;28;20056;-64
2022/01/28 03:05:45;;;;;;;11.73;4.60;;;;;;;-9.06;91.88;98676.06;5013307;28;20413;-63
2022/01/28 03:08:12;;;;;;;20.60;7.00;;;;;;;-9.07;91.64;98677.78;5013132;28;20111;-63
2022/01/28 03:10:49;;;;;;;16.17;6.68;;;;;;;-9.02;91.79;98667.19;4981203;28;20042;-64
2022/01/28 03:13:29;;;;;;;17.65;6.95;;;;;;;-8.96;91.68;98689.66;5015367;28;20049;-64
2022/01/28 03:16:05;;;;;;;18.05;7.95;;;;;;;-9.33;91.85;98628.97;5015289;28;20042;-64
2022/01/28 03:18:41;;;;;;;15.85;6.45;;;;;;;-9.02;92.29;98690.75;5015057;28;20061;-63
2022/01/28 03:21:19;;;;;;;15.55;6.03;;;;;;;-9.05;92.61;98665.50;5029903;28;20540;-64
2022/01/28 03:23:45;;;;;;;15.35;5.38;;;;;;;-8.99;92.91;98662.69;4998912;28;20045;-64
2022/01/28 03:26:11;;;;;;;17.58;7.10;;;;;;;-9.03;92.67;98674.19;5030894;28;20061;-64
2022/01/28 03:28:36;;;;;;;17.38;6.85;;;;;;;-9.02;92.92;98675.03;4980738;28;20034;-64
2022/01/28 03:31:02;;;;;;;17.98;7.47;;;;;;;-9.01;93.32;98659.25;5012878;28;20060;-63
2022/01/28 03:33:28;;;;;;;24.20;8.30;;;;;;;-8.95;93.05;98665.19;4996380;28;20373;-63
2022/01/28 03:35:54;;;;;;;21.23;9.07;;;;;;;-9.00;93.02;98642.63;4996767;28;20076;-64
2022/01/28 03:38:19;;;;;;;14.43;6.10;;;;;;;-9.03;93.18;98632.28;5013200;28;20412;-63
2022/01/28 03:40:47;;;;;;;18.67;7.78;;;;;;;-8.89;93.45;98649.25;5012509;28;20113;-63
2022/01/28 03:43:12;;;;;;;22.75;9.43;;;;;;;-8.93;93.30;98632.78;4996573;28;20084;-64
2022/01/28 03:45:38;;;;;;;22.55;8.18;;;;;;;-8.84;93.02;98642.94;4996308;28;20527;-64
2022/01/28 03:48:04;;;;;;;23.50;9.55;;;;;;;-8.84;93.27;98631.63;5045894;28;20088;-65
2022/01/28 03:50:33;;;;;;;17.83;7.35;;;;;;;-8.92;92.89;98638.88;4996782;28;20053;-64
2022/01/28 03:53:02;;;;;;;21.42;9.15;;;;;;;-8.77;92.76;98638.34;4997614;28;20044;-66
2022/01/28 03:55:27;;;;;;;18.70;6.72;;;;;;;-8.80;92.56;98641.91;5013205;28;20508;-65
2022/01/28 03:57:53;;;;;;;18.02;6.88;;;;;;;-8.65;92.59;98655.38;5029787;28;20045;-63
2022/01/28 04:00:19;;;;;;;15.88;6.32;;;;;;;-8.67;91.82;98631.84;5013194;28;20618;-63
2022/01/28 04:02:46;;;;;;;18.02;7.05;;;;;;;-8.67;92.17;98639.69;4981017;28;20044;-64
2022/01/28 04:13:25;;;;;;;20.30;8.02;;;;;;;-8.61;92.18;98636.84;5029427;28;20128;-63
2022/01/28 04:16:17;;;;;;;21.38;9.30;;;;;;;-8.63;91.43;98633.41;5029181;28;20048;-64
2022/01/28 04:18:39;;;;;;;18.63;6.65;;;;;;;-8.63;91.97;98629.94;5015081;28;20574;-64
2022/01/28 04:21:05;;;;;;;20.73;10.00;;;;;;;-8.59;91.82;98644.63;4979663;28;20072;-65
2022/01/28 04:23:31;;;;;;;19.50;9.07;;;;;;;-8.55;91.33;98644.50;4979943;28;20045;-63
2022/01/28 04:25:57;;;;;;;19.88;10.00;;;;;;;-8.57;92.23;98630.59;5011872;28;20584;-64
2022/01/28 04:28:23;;;;;;;18.80;8.20;;;;;;;-8.62;91.69;98627.28;5031180;28;20172;-64
2022/01/28 04:30:48;;;;;;;22.38;7.93;;;;;;;-8.64;92.16;98623.00;4999725;28;20053;-64
2022/01/28 04:33:14;;;;;;;21.92;8.57;;;;;;;-8.78;91.77;98589.47;5016231;28;20037;-65
2022/01/28 04:35:40;;;;;;;19.52;7.82;;;;;;;-8.57;92.15;98630.59;5032831;28;20042;-64
2022/01/28 04:40:38;;;;;;;19.40;7.07;;;;;;;-8.52;91.75;98628.66;5034057;28;20128;-64
2022/01/28 04:43:17;;;;;;;21.02;9.60;;;;;;;-8.54;92.12;98625.22;5016753;28;20045;-64
2022/01/28 04:48:27;;;;;;;21.10;9.48;;;;;;;-8.47;91.73;98627.63;4999907;28;20049;-64
2022/01/28 04:53:46;;;;;;;18.73;7.63;;;;;;;-8.52;91.69;98618.19;5033912;28;20038;-65
2022/01/28 05:03:49;;;;;;;12.65;3.75;;;;;;;-8.34;91.76;98623.56;4989783;28;20357;-63
2022/01/28 05:06:49;;;;;;;18.85;7.45;;;;;;;-8.35;91.92;98608.75;5037713;28;20067;-64
2022/01/28 05:27:44;;;;;;;16.15;6.40;;;;;;;-8.19;91.25;98619.50;5016140;28;20459;-64
2022/01/28 05:30:10;;;;;;;;;;;;;;;-8.14;91.43;98613.16;5005249;28;20057;-64
2022/01/28 05:32:36;;;;;;;13.68;5.20;;;;;;;-8.14;91.07;98613.16;5003630;28;20398;-64
2022/01/28 05:35:02;;;;;;;15.95;5.70;;;;;;;-8.11;90.91;98607.81;4998836;28;20404;-63
2022/01/28 05:37:29;;;;;;;18.33;8.98;;;;;;;-8.09;90.71;98615.59;4999120;28;20046;-63
2022/01/28 05:39:54;;;;;;;19.13;7.80;;;;;;;-8.13;90.50;98593.91;5014975;28;20519;-64
2022/01/28 05:42:20;;;;;;;15.95;5.43;;;;;;;-8.14;90.28;98592.19;5024626;28;20045;-66
2022/01/28 05:44:46;;;;;;;16.88;6.35;;;;;;;-8.07;90.78;98592.81;5015210;28;20056;-63
2022/01/28 05:47:15;;;;;;;15.98;5.55;;;;;;;-8.04;90.91;98592.69;5015681;28;20457;-64
2022/01/28 05:49:42;;;;;;;19.35;7.55;;;;;;;-8.01;90.65;98589.91;5022581;28;20044;-63
2022/01/28 05:52:09;;;;;;;15.73;6.03;;;;;;;-8.01;90.68;98572.44;5022978;28;20093;-65
2022/01/28 05:54:35;;;;;;;16.33;6.10;;;;;;;-7.94;90.73;98594.00;4985101;28;20117;-64
2022/01/28 05:57:01;;;;;;;16.83;6.43;;;;;;;-7.95;90.44;98586.22;5039999;28;20135;-65
2022/01/28 05:59:27;;;;;;;19.45;8.32;;;;;;;-7.96;90.14;98589.75;5012717;28;20045;-65
2022/01/28 06:01:52;;;;;;;14.15;6.32;;;;;;;-7.93;90.49;98585.25;5001441;28;20182;-65
2022/01/28 06:04:21;;;;;;;18.13;5.63;;;;;;;-7.87;90.15;98594.59;5025930;28;20518;-65
2022/01/28 06:06:47;;;;;;;18.02;7.53;;;;;;;-7.90;90.33;98579.00;5009982;28;20045;-65
2022/01/28 06:09:13;;;;;;;14.13;5.40;;;;;;;-7.91;90.42;98577.28;5019048;28;20045;-65
2022/01/28 06:11:39;;;;;;;22.83;6.90;;;;;;;-7.88;90.03;98579.78;4999038;28;20037;-65
2022/01/28 06:14:06;;;;;;;17.80;7.47;;;;;;;-7.88;90.67;98571.94;5001934;28;20391;-66
2022/01/28 06:16:32;;;;;;;18.00;7.13;;;;;;;-7.82;91.50;98582.19;5017502;28;20678;-74
2022/01/28 06:18:58;;;;;;;20.95;7.85;;;;;;;-7.81;91.15;98583.88;5049238;28;20224;-64
2022/01/28 06:21:24;;;;;;;16.60;6.07;;;;;;;-7.77;91.48;98572.34;5033171;28;20177;-65
2022/01/28 06:23:52;;;;;;;18.83;7.90;;;;;;;-7.80;92.08;98569.84;5006417;28;20059;-65
2022/01/28 06:26:18;;;;;;;13.50;4.85;;;;;;;-7.69;92.16;98579.88;5042151;28;20041;-65
2022/01/28 06:28:44;;;;;;;20.48;7.15;;;;;;;-7.69;92.14;98572.84;5035283;28;20147;-64
2022/01/28 06:31:10;;;;;;;18.05;6.05;;;;;;;-7.67;91.79;98576.28;5028134;28;20461;-65
2022/01/28 06:33:36;;;;;;;21.80;8.68;;;;;;;-7.73;91.58;98581.78;5035892;28;20059;-65
2022/01/28 06:36:03;;;;;;;18.65;6.53;;;;;;;-7.64;92.71;98570.91;5014901;28;20124;-65
2022/01/28 06:38:30;;;;;;;16.60;5.50;;;;;;;-7.70;92.57;98565.91;5035649;28;20048;-65
2022/01/28 06:40:56;;;;;;;18.90;7.55;;;;;;;-7.69;93.36;98556.28;5005660;28;20560;-65
2022/01/28 06:43:22;;;;;;;20.08;6.65;;;;;;;-7.59;93.29;98563.69;5019152;28;20052;-64
2022/01/28 06:45:48;;;;;;;17.77;7.18;;;;;;;-7.61;93.61;98552.38;5015861;28;20388;-65
2022/01/28 06:48:16;;;;;;;16.85;5.50;;;;;;;-7.49;93.50;98560.66;5026635;28;20044;-65
2022/01/28 06:50:43;;;;;;;15.77;6.10;;;;;;;-7.42;91.91;98555.09;4999221;28;20067;-65
2022/01/28 06:53:11;;;;;;;17.02;7.05;;;;;;;-7.47;92.76;98566.69;5018568;28;20415;-65
2022/01/28 06:55:37;;;;;;;17.63;7.13;;;;;;;-7.46;92.58;98560.53;5003569;28;20044;-65
2022/01/28 06:58:04;;;;;;;20.40;8.55;;;;;;;-7.39;91.58;98554.94;5015819;28;20420;-65
2022/01/28 07:00:36;;;;;;;18.98;6.78;;;;;;;-7.28;92.29;98557.09;5058145;28;20110;-65
2022/01/28 07:03:14;;;;;;;25.10;10.45;;;;;;;-7.46;91.47;98529.88;5018475;28;20068;-65
2022/01/28 07:05:40;;;;;;;20.13;8.93;;;;;;;-7.23;91.77;98544.63;5036918;28;20049;-65
2022/01/28 07:08:07;;;;;;;24.17;7.95;;;;;;;-7.17;91.94;98539.09;5032690;28;20628;-65
2022/01/28 07:10:34;;;;;;;16.42;6.20;;;;;;;-7.00;90.01;98540.13;5034534;28;20470;-65
2022/01/28 07:13:00;;;;;;;19.02;6.68;;;;;;;-6.82;89.88;98549.78;5047915;28;20478;-67
2022/01/28 07:15:26;;;;;;;23.23;8.38;;;;;;;-7.37;89.86;98510.25;5026856;28;20518;-68
2022/01/28 07:18:02;;;;;;;20.63;7.13;;;;;;;-7.08;90.43;98541.31;4992028;28;20050;-65
2022/01/28 07:20:31;;;;;;;20.33;7.15;;;;;;;-7.11;90.92;98549.31;5040477;28;20045;-66
2022/01/28 07:22:58;;;;;;;23.13;8.15;;;;;;;-7.18;90.61;98557.56;5061362;28;20503;-65
2022/01/28 07:25:23;;;;;;;23.77;11.02;;;;;;;-7.32;90.91;98547.66;4998614;28;20171;-65
2022/01/28 07:27:49;;;;;;;22.52;9.57;;;;;;;-7.35;91.64;98558.28;5004029;28;20077;-65
2022/01/28 07:30:15;;;;;;;25.60;8.05;;;;;;;-7.34;91.81;98567.88;5051858;28;20041;-65
2022/01/28 07:32:42;;;;;;;18.98;7.38;;;;;;;-7.38;91.65;98571.56;5004560;28;20053;-65
2022/01/28 07:35:09;;;;;;;24.60;10.40;;;;;;;-7.48;91.23;98571.09;4983035;28;20480;-65
2022/01/28 07:37:34;;;;;;;26.85;12.52;;;;;;;-7.35;91.13;98563.53;5009124;28;20049;-66
2022/01/28 07:40:03;;;;;;;23.92;10.07;;;;;;;-7.33;90.32;98561.72;4982228;28;20049;-65
2022/01/28 07:42:33;;;;;;;25.98;9.75;;;;;;;-7.34;90.00;98578.38;5002597;28;20464;-66
2022/01/28 07:44:59;;;;;;;22.35;8.13;;;;;;;-7.38;90.31;98561.91;5019016;28;20041;-65
2022/01/28 07:47:24;;;;;;;20.15;7.88;;;;;;;-7.29;89.90;98568.53;5016442;28;20089;-65
2022/01/28 07:49:50;;;;;;;22.13;8.98;;;;;;;-7.29;90.41;98576.41;5012588;28;20155;-66
2022/01/28 07:52:16;;;;;;;26.02;10.02;;;;;;;-7.35;90.44;98561.78;5019803;28;20458;-65
2022/01/28 07:54:47;;;;;;;24.67;10.05;;;;;;;-7.32;90.84;98579.16;4996905;28;20048;-66
2022/01/28 07:57:13;;;;;;;20.15;8.00;;;;;;;-7.17;89.85;98570.59;5005958;28;20049;-66
2022/01/28 07:59:39;;;;;;;19.77;7.07;;;;;;;-7.17;89.60;98570.59;4997893;28;20049;-65
2022/01/28 08:02:05;;;;;;;27.67;10.65;;;;;;;-7.18;89.83;98563.66;5015301;28;20049;-66
2022/01/28 08:04:31;;;;;;;25.77;9.77;;;;;;;-7.17;89.50;98551.38;5001836;28;20052;-66
2022/01/28 08:06:57;;;;;;;22.63;7.97;;;;;;;-6.85;89.09;98558.66;5006585;28;20098;-66
2022/01/28 08:09:23;;;;;;;23.50;7.80;;;;;;;-6.63;88.48;98550.63;5025810;28;20040;-65
2022/01/28 08:11:48;;;;;;;24.35;10.32;;;;;;;-6.95;87.90;98569.66;5056133;28;20071;-66
2022/01/28 08:14:14;;;;;;;15.85;5.68;;;;;;;-6.74;89.54;98573.94;4981245;28;20120;-66
2022/01/28 08:16:40;;;;;;;25.05;7.97;;;;;;;-6.70;89.20;98575.50;5019891;28;20577;-65
2022/01/28 08:19:06;;;;;;;24.00;8.23;;;;;;;-6.52;89.26;98560.66;5035107;28;20072;-66
2022/01/28 08:21:32;;;;;;;19.67;6.82;;;;;;;-6.38;88.06;98560.84;4999905;28;20092;-65
2022/01/28 08:23:58;;;;;;;22.88;7.35;;;;;;;-6.07;86.93;98565.50;5006184;28;20106;-66
2022/01/28 08:26:24;;;;;;;22.30;8.82;;;;;;;-6.36;86.90;98563.38;5009581;28;20107;-66
2022/01/28 08:28:50;;;;;;;23.95;8.82;;;;;;;-6.11;86.72;98558.66;5005623;28;20044;-65
2022/01/28 08:31:15;;;;;;;30.15;14.07;;;;;;;-6.69;86.89;98566.72;5035079;28;20044;-65
2022/01/28 08:33:41;;;;;;;27.63;9.48;;;;;;;-6.56;87.84;98562.56;4981516;28;20045;-66
2022/01/28 08:36:08;;;;;;;22.35;8.50;;;;;;;-6.43;87.58;98554.13;4998576;28;20047;-65
2022/01/28 08:38:36;;;;;;;25.25;9.18;;;;;;;-6.61;87.38;98558.47;5029495;28;20468;-66
2022/01/28 08:41:02;;;;;;;27.08;10.82;;;;;;;-6.74;89.12;98552.91;4982012;28;20045;-66
2022/01/28 08:43:28;;;;;;;23.45;8.25;;;;;;;-6.49;88.63;98546.50;5013258;28;20046;-66
2022/01/28 08:45:55;;;;;;;26.83;10.52;;;;;;;-6.61;88.39;98548.78;4997402;28;20796;-65
2022/01/28 08:48:20;;;;;;;13.57;5.00;;;;;;;-6.56;88.89;98552.06;5024532;28;20083;-65
2022/01/28 08:50:46;;;;;;;26.17;9.27;;;;;;;-6.71;89.39;98544.88;5060757;28;20053;-65
2022/01/28 08:53:12;;;;;;;28.77;11.73;;;;;;;-6.67;88.85;98535.09;5033014;28;20100;-65
2022/01/28 08:55:39;;;;;;;25.75;10.32;;;;;;;-6.63;89.69;98540.13;5002911;28;20045;-66
2022/01/28 08:58:09;;;;;;;24.73;9.05;;;;;;;-6.55;87.96;98516.94;5048581;28;20080;-65
2022/01/28 09:00:35;;;;;;;30.55;9.70;;;;;;;-6.37;87.66;98540.66;4998037;28;20049;-66
2022/01/28 09:03:01;;;;;;;22.88;9.23;;;;;;;-6.22;86.50;98518.88;4999358;28;20102;-66
2022/01/28 09:05:28;;;;;;;32.78;13.23;;;;;;;-6.08;86.25;98528.72;4995628;28;20049;-68
2022/01/28 09:07:55;;;;;;;28.83;11.38;;;;;;;-6.20;86.61;98538.09;4990169;28;20125;-67
2022/01/28 09:10:25;;;;;;;33.10;14.20;;;;;;;-6.41;87.24;98523.34;4995422;28;20089;-67
2022/01/28 09:13:37;;;;;;;30.80;12.00;;;;;;;-6.27;87.19;98536.66;5028367;28;20231;-70
2022/01/28 09:15:41;;;;;;;22.73;9.32;;;;;;;-6.20;87.07;98527.56;4992845;28;20040;-68
2022/01/28 09:18:11;;;;;;;25.38;10.25;;;;;;;-6.21;87.30;98514.50;5031544;28;20048;-67
2022/01/28 09:20:39;;;;;;;32.28;15.13;;;;;;;-6.50;87.16;98515.91;5001558;28;20051;-68
2022/01/28 09:23:05;;;;;;;35.50;16.52;;;;;;;-6.57;88.19;98502.19;4978246;28;20048;-67
2022/01/28 09:25:34;;;;;;;33.67;12.55;;;;;;;-6.58;89.08;98521.50;4991844;28;20056;-67
2022/01/28 09:28:00;;;;;;;31.63;12.48;;;;;;;-6.59;90.03;98510.13;5043495;28;20124;-66
2022/01/28 09:30:27;;;;;;;37.75;13.40;;;;;;;-6.69;90.20;98498.38;5034162;28;20064;-65
2022/01/28 09:32:53;;;;;;;34.83;12.85;;;;;;;-6.62;89.82;98505.06;4991797;28;1289886;-68
2022/01/28 09:35:19;;;;;;;32.33;13.40;;;;;;;-6.57;90.43;98510.94;5007953;28;20033;-69
2022/01/28 09:37:45;;;;;;;23.85;8.70;;;;;;;-6.35;89.09;98512.53;4991098;28;20488;-65
2022/01/28 09:40:12;;;;;;;34.78;14.90;;;;;;;-6.50;88.52;98518.53;4989252;28;20045;-65
2022/01/28 09:42:41;;;;;;;37.03;14.98;;;;;;;-6.53;89.15;98513.41;5004839;28;20053;-65
2022/01/28 09:45:09;;;;;;;28.48;10.45;;;;;;;-6.43;89.11;98509.44;5042201;28;20045;-64
2022/01/28 09:47:38;;;;;;;32.53;10.02;;;;;;;-6.10;87.96;98515.66;5019176;28;20045;-65
2022/01/28 09:50:06;;;;;;;30.52;10.23;;;;;;;-6.01;87.81;98521.41;4986450;28;20151;-64
2022/01/28 09:52:32;;;;;;;33.75;11.38;;;;;;;-6.08;87.42;98500.66;5051968;28;20139;-64
2022/01/28 09:54:58;;;;;;;36.10;13.65;;;;;;;-6.16;88.18;98515.97;5021203;28;20518;-64
2022/01/28 09:57:24;;;;;;;30.92;12.18;;;;;;;-6.12;87.57;98501.72;5024458;28;20060;-65
2022/01/28 09:59:51;;;;;;;39.17;15.80;;;;;;;-6.41;87.37;98513.66;5024638;28;20053;-65
2022/01/28 10:02:17;;;;;;;34.10;13.43;;;;;;;-6.26;88.03;98501.56;5002909;28;20462;-64
2022/01/28 10:04:43;;;;;;;31.92;11.27;;;;;;;-6.29;88.20;98480.66;5003659;28;20194;-64
2022/01/28 10:07:16;;;;;;;37.47;14.05;;;;;;;-6.13;87.50;98502.66;5009122;28;20120;-65
2022/01/28 10:10:03;;;;;;;35.38;13.18;;;;;;;-5.96;87.57;98504.47;5037014;28;20491;-64
2022/01/28 10:12:39;;;;;;;30.42;11.77;;;;;;;-6.08;87.89;98490.13;5003258;28;20085;-65
2022/01/28 10:15:17;;;;;;;37.30;15.85;;;;;;;-6.27;87.93;98478.81;5013260;28;20135;-64
2022/01/28 10:17:58;;;;;;;37.05;13.88;;;;;;;-6.47;86.79;98418.47;4982687;28;20045;-65
2022/01/28 10:20:25;;;;;;;37.10;14.30;;;;;;;-6.11;87.37;98484.16;5037713;28;20045;-65
2022/01/28 10:22:51;;;;;;;38.92;17.42;;;;;;;-6.31;88.05;98474.66;5067344;28;20049;-64
2022/01/28 10:25:23;;;;;;;36.40;13.05;;;;;;;-6.19;87.19;98481.91;5002250;28;20135;-65
2022/01/28 10:28:00;;;;;;;40.47;15.52;;;;;;;-6.66;88.27;98448.28;5026181;28;20041;-64
2022/01/28 10:30:25;;;;;;;23.67;7.03;;;;;;;-6.22;89.05;98491.72;5002853;28;20250;-65
2022/01/28 10:33:27;;;;;;;32.30;11.20;;;;;;;-6.14;87.23;98479.94;5032294;28;20135;-64
2022/01/28 10:35:54;;;;;;;38.63;15.05;;;;;;;-6.23;87.81;98488.25;5004257;28;20624;-64
2022/01/28 10:38:34;;;;;;;39.33;14.23;;;;;;;-6.10;87.73;98484.09;5032327;28;20536;-65
2022/01/28 10:41:06;;;;;;;23.77;8.82;;;;;;;-5.84;86.63;98488.03;5016918;28;20040;-64
2022/01/28 10:43:32;;;;;;;37.42;13.40;;;;;;;-5.94;86.18;98475.44;5017050;28;20049;-65
2022/01/28 10:46:07;;;;;;;38.72;14.50;;;;;;;-5.97;86.75;98486.09;5011333;28;20140;-65
2022/01/28 10:48:33;;;;;;;42.50;14.27;;;;;;;-5.97;86.95;98475.59;5038551;28;20128;-64
2022/01/28 10:50:59;;;;;;;29.77;10.23;;;;;;;-5.87;87.09;98482.06;5015766;28;20045;-65
2022/01/28 10:53:27;;;;;;;42.22;14.73;;;;;;;-6.15;87.06;98483.47;5010061;28;20193;-64
2022/01/28 10:55:57;;;;;;;36.35;14.32;;;;;;;-5.98;87.92;98479.16;4982792;28;20045;-64
2022/01/28 10:58:26;;;;;;;40.17;14.50;;;;;;;-5.98;87.44;98468.63;5001740;28;20090;-64
2022/01/28 11:00:54;;;;;;;44.85;15.73;;;;;;;-5.95;86.51;98463.22;5022013;28;20071;-64
2022/01/28 11:03:26;;;;;;;38.28;13.55;;;;;;;-5.92;87.99;98460.44;5007139;28;20072;-64
2022/01/28 11:05:59;;;;;;;41.83;15.80;;;;;;;-6.04;88.10;98467.16;5017712;28;20178;-64
2022/01/28 11:08:26;;;;;;;43.25;16.98;;;;;;;-6.18;89.36;98461.72;5016984;28;20492;-64
2022/01/28 11:10:53;;;;;;;43.80;16.63;;;;;;;-6.43;90.12;98435.81;5029900;28;20044;-64
2022/01/28 11:13:18;;;;;;;42.88;17.52;;;;;;;-6.28;89.87;98456.09;5051621;28;20487;-65
2022/01/28 11:15:45;;;;;;;40.15;15.60;;;;;;;-6.32;88.73;98463.28;5018187;28;20040;-65
2022/01/28 11:18:11;;;;;;;44.50;16.27;;;;;;;-6.32;89.61;98459.81;5002052;28;20143;-65
2022/01/28 11:20:52;;;;;;;47.13;16.63;;;;;;;-6.24;90.63;98462.06;4990238;28;20094;-65
2022/01/28 11:23:18;;;;;;;46.38;19.75;;;;;;;-6.53;90.68;98424.06;4999402;28;20053;-65
2022/01/28 11:25:55;;;;;;;42.67;15.32;;;;;;;-6.36;91.43;98448.59;5002532;28;20040;-64
2022/01/28 11:28:21;;;;;;;;;;;;;;;-6.32;89.92;98451.91;5039763;28;20060;-64
2022/01/28 11:30:51;;;;;;;48.03;16.58;;;;;;;-6.34;90.41;98440.59;5043182;28;20294;-63
2022/01/28 11:33:17;;;;;;;51.55;17.65;;;;;;;-6.25;89.93;98460.31;5033189;28;20051;-65
2022/01/28 11:35:49;;;;;;;47.35;16.10;;;;;;;-6.18;89.40;98466.97;5033908;28;20071;-64
2022/01/28 11:38:42;;;;;;;49.05;15.38;;;;;;;-6.16;89.90;98471.25;5004524;28;20044;-64
2022/01/28 11:41:13;;;;;;;41.80;17.35;;;;;;;-6.16;89.58;98444.94;5022662;28;20056;-65
2022/01/28 11:43:49;;;;;;;32.97;11.55;;;;;;;-6.26;88.94;98448.97;5037097;28;20072;-65
2022/01/28 11:46:38;;;;;;;46.17;16.75;;;;;;;-6.18;89.50;98451.19;5008578;28;20580;-65
2022/01/28 11:49:07;;;;;;;46.10;17.00;;;;;;;-6.56;88.96;98394.34;5008335;28;20048;-65
2022/01/28 11:51:44;;;;;;;45.85;16.48;;;;;;;-6.27;89.29;98455.16;5022565;28;20049;-63
2022/01/28 11:54:12;;;;;;;50.92;17.65;;;;;;;-6.18;88.97;98462.59;5004336;28;20043;-65
2022/01/28 11:56:53;;;;;;;38.88;13.95;;;;;;;-6.22;88.63;98455.75;5005231;28;20040;-64
2022/01/28 11:59:25;;;;;;;52.97;20.92;;;;;;;-6.25;88.73;98458.56;4982863;28;20048;-65
2022/01/28 12:01:51;;;;;;;51.75;16.80;;;;;;;-6.20;90.42;98464.44;5024160;28;20054;-65
2022/01/28 12:04:27;;;;;;;51.90;16.92;;;;;;;-6.22;89.90;98471.53;5013422;28;20419;-65
2022/01/28 12:07:15;;;;;;;53.00;20.75;;;;;;;-6.32;90.21;98460.66;5010713;28;20400;-64
2022/01/28 12:09:52;;;;;;;47.65;15.23;;;;;;;-6.26;90.08;98458.63;5017124;28;20103;-65
2022/01/28 12:12:42;;;;;;;47.60;16.92;;;;;;;-6.45;90.09;98454.28;5022819;28;20048;-64
2022/01/28 12:15:12;;;;;;;53.03;18.58;;;;;;;-6.37;91.12;98461.78;5027428;28;20147;-65
2022/01/28 12:17:40;;;;;;;48.83;17.13;;;;;;;-6.26;91.63;98470.00;4985868;28;20125;-64
2022/01/28 12:20:15;;;;;;;49.03;16.77;;;;;;;-6.31;91.35;98470.22;5035200;28;20088;-65
2022/01/28 12:23:04;;;;;;;50.40;18.63;;;;;;;-6.36;90.74;98466.13;5009277;28;20966;-64
2022/01/28 12:25:36;;;;;;;55.00;22.20;;;;;;;-6.61;91.08;98448.94;5017393;28;20121;-65
2022/01/28 12:28:40;;;;;;;48.63;18.08;;;;;;;-6.45;91.82;98474.47;4987433;28;20041;-64
2022/01/28 12:31:20;;;;;;;30.67;11.00;;;;;;;-6.36;92.07;98464.34;4983816;28;20139;-65
2022/01/28 12:33:52;;;;;;;52.88;18.10;;;;;;;-6.36;91.98;98474.00;5030625;28;20048;-64
2022/01/28 12:36:32;;;;;;;35.72;13.85;;;;;;;-6.30;92.02;98473.72;5009532;28;20037;-64
2022/01/28 12:39:11;;;;;;;56.67;21.05;;;;;;;-6.38;91.98;98491.66;5028908;28;20089;-66
2022/01/28 12:41:50;;;;;;;43.42;13.55;;;;;;;-6.30;92.27;98478.97;5023259;28;20041;-64
2022/01/28 12:44:31;;;;;;;45.40;16.48;;;;;;;-6.41;91.41;98458.47;5006579;28;20135;-65
2022/01/28 12:47:04;;;;;;;49.92;17.63;;;;;;;-6.33;91.36;98479.09;5009912;28;20052;-65
2022/01/28 12:49:32;;;;;;;52.40;20.63;;;;;;;-6.58;91.95;98480.31;5027251;28;20577;-65